sensor_id;sensor_type;location;lat;lon;timestamp;temperature;humidity
14682;DHT22;7429;52.498;13.480;2023-04-25T00:00:31;9.30;99.90
14682;DHT22;7429;52.498;13.480;2023-04-25T00:03:35;9.20;99.90
14682;DHT22;7429;52.498;13.480;2023-04-25T00:06:41;9.20;99.90
14682;DHT22;7429;52.498;13.480;2023-04-25T00:09:44;9.20;99.90
14682;DHT22;7429;52.498;13.480;2023-04-25T00:12:53;9.10;99.90
14682;DHT22;7429;52.498;13.480;2023-04-25T00:16:09;9.20;99.90
14682;DHT22;7429;52.498;13.480;2023-04-25T00:19:14;9.20;99.90
14682;DHT22;7429;52.498;13.480;2023-04-25T00:22:18;9.10;99.90
14682;DHT22;7429;52.498;13.480;2023-04-25T00:25:22;9.20;99.90
14682;DHT22;7429;52.498;13.480;2023-04-25T00:28:26;9.10;99.90
14682;DHT22;7429;52.498;13.480;2023-04-25T00:31:29;9.10;99.90
14682;DHT22;7429;52.498;13.480;2023-04-25T00:34:33;9.10;99.90
14682;DHT22;7429;52.498;13.480;2023-04-25T00:37:37;9.10;99.90
14682;DHT22;7429;52.498;13.480;2023-04-25T00:40:41;9.10;99.90
14682;DHT22;7429;52.498;13.480;2023-04-25T00:43:49;9.10;99.90
14682;DHT22;7429;52.498;13.480;2023-04-25T00:46:54;9.10;99.90
14682;DHT22;7429;52.498;13.480;2023-04-25T00:49:59;9.10;99.90
14682;DHT22;7429;52.498;13.480;2023-04-25T00:53:03;9.10;99.90
14682;DHT22;7429;52.498;13.480;2023-04-25T00:56:07;9.00;99.90
14682;DHT22;7429;52.498;13.480;2023-04-25T00:59:13;9.10;99.90
14682;DHT22;7429;52.498;13.480;2023-04-25T01:02:18;9.10;99.90
14682;DHT22;7429;52.498;13.480;2023-04-25T01:05:24;9.10;99.90
14682;DHT22;7429;52.498;13.480;2023-04-25T01:08:28;9.10;99.90
14682;DHT22;7429;52.498;13.480;2023-04-25T01:11:31;9.10;99.90
14682;DHT22;7429;52.498;13.480;2023-04-25T01:14:34;9.00;99.90
14682;DHT22;7429;52.498;13.480;2023-04-25T01:17:40;9.00;99.90
14682;DHT22;7429;52.498;13.480;2023-04-25T01:20:46;9.00;99.90
14682;DHT22;7429;52.498;13.480;2023-04-25T01:23:51;9.00;99.90
14682;DHT22;7429;52.498;13.480;2023-04-25T01:26:56;9.00;99.90
14682;DHT22;7429;52.498;13.480;2023-04-25T01:29:59;9.00;99.90
14682;DHT22;7429;52.498;13.480;2023-04-25T01:33:07;9.00;99.90
14682;DHT22;7429;52.498;13.480;2023-04-25T01:36:11;9.00;99.90
14682;DHT22;7429;52.498;13.480;2023-04-25T01:39:17;9.00;99.90
14682;DHT22;7429;52.498;13.480;2023-04-25T01:42:21;9.10;99.90
14682;DHT22;7429;52.498;13.480;2023-04-25T01:45:25;9.10;99.90
14682;DHT22;7429;52.498;13.480;2023-04-25T01:48:28;9.10;99.90
14682;DHT22;7429;52.498;13.480;2023-04-25T01:51:31;9.10;99.90
14682;DHT22;7429;52.498;13.480;2023-04-25T01:54:36;9.10;99.90
14682;DHT22;7429;52.498;13.480;2023-04-25T01:57:40;9.10;99.90
14682;DHT22;7429;52.498;13.480;2023-04-25T02:00:43;9.00;99.90
14682;DHT22;7429;52.498;13.480;2023-04-25T02:03:47;9.10;99.90
14682;DHT22;7429;52.498;13.480;2023-04-25T02:07:00;9.10;99.90
14682;DHT22;7429;52.498;13.480;2023-04-25T02:10:14;9.10;99.90
14682;DHT22;7429;52.498;13.480;2023-04-25T02:13:28;9.10;99.90
14682;DHT22;7429;52.498;13.480;2023-04-25T02:16:35;9.10;99.90
14682;DHT22;7429;52.498;13.480;2023-04-25T02:19:42;9.10;99.90
14682;DHT22;7429;52.498;13.480;2023-04-25T02:22:45;9.10;99.90
14682;DHT22;7429;52.498;13.480;2023-04-25T02:25:49;9.00;99.90
14682;DHT22;7429;52.498;13.480;2023-04-25T02:28:53;9.10;99.90
14682;DHT22;7429;52.498;13.480;2023-04-25T02:31:56;9.10;99.90
14682;DHT22;7429;52.498;13.480;2023-04-25T02:35:00;9.10;99.90
14682;DHT22;7429;52.498;13.480;2023-04-25T02:38:05;9.00;99.90
14682;DHT22;7429;52.498;13.480;2023-04-25T02:41:10;9.00;99.90
14682;DHT22;7429;52.498;13.480;2023-04-25T02:44:13;9.00;99.90
14682;DHT22;7429;52.498;13.480;2023-04-25T02:47:16;9.00;99.90
14682;DHT22;7429;52.498;13.480;2023-04-25T02:50:19;9.00;99.90
14682;DHT22;7429;52.498;13.480;2023-04-25T02:53:22;9.00;99.90
14682;DHT22;7429;52.498;13.480;2023-04-25T02:56:28;9.00;99.90
14682;DHT22;7429;52.498;13.480;2023-04-25T02:59:32;9.00;99.90
14682;DHT22;7429;52.498;13.480;2023-04-25T03:02:35;9.00;99.90
14682;DHT22;7429;52.498;13.480;2023-04-25T03:05:38;9.00;99.90
14682;DHT22;7429;52.498;13.480;2023-04-25T03:08:41;9.00;99.90
14682;DHT22;7429;52.498;13.480;2023-04-25T03:11:46;9.00;99.90
14682;DHT22;7429;52.498;13.480;2023-04-25T03:14:49;9.00;99.90
14682;DHT22;7429;52.498;13.480;2023-04-25T03:17:52;8.90;99.90
14682;DHT22;7429;52.498;13.480;2023-04-25T03:20:58;8.90;99.90
14682;DHT22;7429;52.498;13.480;2023-04-25T03:24:03;9.00;99.90
14682;DHT22;7429;52.498;13.480;2023-04-25T03:27:10;9.00;99.90
14682;DHT22;7429;52.498;13.480;2023-04-25T03:30:14;9.00;99.90
14682;DHT22;7429;52.498;13.480;2023-04-25T03:33:19;8.90;99.90
14682;DHT22;7429;52.498;13.480;2023-04-25T03:36:22;8.90;99.90
14682;DHT22;7429;52.498;13.480;2023-04-25T03:39:25;8.80;99.90
14682;DHT22;7429;52.498;13.480;2023-04-25T03:42:31;8.80;99.90
14682;DHT22;7429;52.498;13.480;2023-04-25T03:45:34;8.80;99.90
14682;DHT22;7429;52.498;13.480;2023-04-25T03:48:37;8.90;99.90
14682;DHT22;7429;52.498;13.480;2023-04-25T03:51:41;8.80;99.90
14682;DHT22;7429;52.498;13.480;2023-04-25T03:54:45;8.80;99.90
14682;DHT22;7429;52.498;13.480;2023-04-25T03:57:53;8.80;99.90
14682;DHT22;7429;52.498;13.480;2023-04-25T04:00:57;8.80;99.90
14682;DHT22;7429;52.498;13.480;2023-04-25T04:04:00;8.80;99.90
14682;DHT22;7429;52.498;13.480;2023-04-25T04:07:05;8.80;99.90
14682;DHT22;7429;52.498;13.480;2023-04-25T04:10:11;8.80;99.90
14682;DHT22;7429;52.498;13.480;2023-04-25T04:13:16;8.80;99.90
14682;DHT22;7429;52.498;13.480;2023-04-25T04:16:19;8.80;99.90
14682;DHT22;7429;52.498;13.480;2023-04-25T04:19:22;8.80;99.90
14682;DHT22;7429;52.498;13.480;2023-04-25T04:22:38;8.80;99.90
14682;DHT22;7429;52.498;13.480;2023-04-25T04:25:45;8.70;99.90
14682;DHT22;7429;52.498;13.480;2023-04-25T04:29:10;8.70;99.90
14682;DHT22;7429;52.498;13.480;2023-04-25T04:32:24;8.70;99.90
14682;DHT22;7429;52.498;13.480;2023-04-25T04:35:29;8.80;99.90
14682;DHT22;7429;52.498;13.480;2023-04-25T04:38:33;8.80;99.90
14682;DHT22;7429;52.498;13.480;2023-04-25T04:41:38;8.80;99.90
14682;DHT22;7429;52.498;13.480;2023-04-25T04:44:46;8.80;99.90
14682;DHT22;7429;52.498;13.480;2023-04-25T04:48:02;8.80;99.90
14682;DHT22;7429;52.498;13.480;2023-04-25T04:51:29;8.80;99.90
14682;DHT22;7429;52.498;13.480;2023-04-25T04:54:49;8.80;99.90
14682;DHT22;7429;52.498;13.480;2023-04-25T04:58:06;8.90;99.90
14682;DHT22;7429;52.498;13.480;2023-04-25T05:01:29;8.90;99.90
14682;DHT22;7429;52.498;13.480;2023-04-25T05:04:57;8.90;99.90
14682;DHT22;7429;52.498;13.480;2023-04-25T05:08:23;8.90;99.90
14682;DHT22;7429;52.498;13.480;2023-04-25T05:11:49;8.90;99.90
14682;DHT22;7429;52.498;13.480;2023-04-25T05:15:01;8.90;99.90
14682;DHT22;7429;52.498;13.480;2023-04-25T05:18:25;8.90;99.90
14682;DHT22;7429;52.498;13.480;2023-04-25T05:21:39;8.90;99.90
14682;DHT22;7429;52.498;13.480;2023-04-25T05:25:07;8.90;99.90
14682;DHT22;7429;52.498;13.480;2023-04-25T05:28:57;8.90;99.90
14682;DHT22;7429;52.498;13.480;2023-04-25T05:32:33;8.90;99.90
14682;DHT22;7429;52.498;13.480;2023-04-25T05:35:41;8.90;99.90
14682;DHT22;7429;52.498;13.480;2023-04-25T05:38:55;8.90;99.90
14682;DHT22;7429;52.498;13.480;2023-04-25T05:42:24;9.00;99.90
14682;DHT22;7429;52.498;13.480;2023-04-25T05:45:45;9.00;99.90
14682;DHT22;7429;52.498;13.480;2023-04-25T05:49:14;9.00;99.90
14682;DHT22;7429;52.498;13.480;2023-04-25T05:53:00;9.10;99.90
14682;DHT22;7429;52.498;13.480;2023-04-25T05:56:13;9.00;99.90
14682;DHT22;7429;52.498;13.480;2023-04-25T05:59:17;9.00;99.90
14682;DHT22;7429;52.498;13.480;2023-04-25T06:02:21;8.90;99.90
14682;DHT22;7429;52.498;13.480;2023-04-25T06:05:25;9.00;99.90
14682;DHT22;7429;52.498;13.480;2023-04-25T06:08:31;8.90;99.90
14682;DHT22;7429;52.498;13.480;2023-04-25T06:11:34;8.90;99.90
14682;DHT22;7429;52.498;13.480;2023-04-25T06:14:37;9.00;99.90
14682;DHT22;7429;52.498;13.480;2023-04-25T06:17:40;9.00;99.90
14682;DHT22;7429;52.498;13.480;2023-04-25T06:20:43;9.00;99.90
14682;DHT22;7429;52.498;13.480;2023-04-25T06:23:49;9.00;99.90
14682;DHT22;7429;52.498;13.480;2023-04-25T06:26:56;9.00;99.90
14682;DHT22;7429;52.498;13.480;2023-04-25T06:29:59;9.00;99.90
14682;DHT22;7429;52.498;13.480;2023-04-25T06:33:05;9.10;99.90
14682;DHT22;7429;52.498;13.480;2023-04-25T06:36:10;9.00;99.90
14682;DHT22;7429;52.498;13.480;2023-04-25T06:39:16;9.00;99.90
14682;DHT22;7429;52.498;13.480;2023-04-25T06:42:23;9.10;99.90
14682;DHT22;7429;52.498;13.480;2023-04-25T06:45:31;9.10;99.90
14682;DHT22;7429;52.498;13.480;2023-04-25T06:48:34;9.10;99.90
14682;DHT22;7429;52.498;13.480;2023-04-25T06:51:37;9.10;99.90
14682;DHT22;7429;52.498;13.480;2023-04-25T06:54:41;9.10;99.90
14682;DHT22;7429;52.498;13.480;2023-04-25T06:57:55;9.10;99.90
14682;DHT22;7429;52.498;13.480;2023-04-25T07:01:21;9.10;99.90
14682;DHT22;7429;52.498;13.480;2023-04-25T07:04:25;9.10;99.90
14682;DHT22;7429;52.498;13.480;2023-04-25T07:07:31;9.10;99.90
14682;DHT22;7429;52.498;13.480;2023-04-25T07:10:36;9.10;99.90
14682;DHT22;7429;52.498;13.480;2023-04-25T07:13:39;9.10;99.90
14682;DHT22;7429;52.498;13.480;2023-04-25T07:16:42;9.20;99.90
14682;DHT22;7429;52.498;13.480;2023-04-25T07:19:45;9.20;99.90
14682;DHT22;7429;52.498;13.480;2023-04-25T07:22:49;9.20;99.90
14682;DHT22;7429;52.498;13.480;2023-04-25T07:25:54;9.20;99.90
14682;DHT22;7429;52.498;13.480;2023-04-25T07:29:00;9.10;99.90
14682;DHT22;7429;52.498;13.480;2023-04-25T07:32:03;9.00;99.90
14682;DHT22;7429;52.498;13.480;2023-04-25T07:35:07;8.90;99.90
14682;DHT22;7429;52.498;13.480;2023-04-25T07:38:11;8.80;99.90
14682;DHT22;7429;52.498;13.480;2023-04-25T07:41:16;8.80;99.90
14682;DHT22;7429;52.498;13.480;2023-04-25T07:44:19;8.80;99.90
14682;DHT22;7429;52.498;13.480;2023-04-25T07:47:22;8.80;99.90
14682;DHT22;7429;52.498;13.480;2023-04-25T07:50:27;8.90;99.90
14682;DHT22;7429;52.498;13.480;2023-04-25T07:53:31;9.00;99.90
14682;DHT22;7429;52.498;13.480;2023-04-25T07:56:42;9.00;99.90
14682;DHT22;7429;52.498;13.480;2023-04-25T07:59:54;9.20;99.90
14682;DHT22;7429;52.498;13.480;2023-04-25T08:02:57;9.20;99.90
14682;DHT22;7429;52.498;13.480;2023-04-25T08:06:01;9.30;99.90
14682;DHT22;7429;52.498;13.480;2023-04-25T08:09:18;9.20;99.90
14682;DHT22;7429;52.498;13.480;2023-04-25T08:12:22;9.10;99.90
14682;DHT22;7429;52.498;13.480;2023-04-25T08:15:27;9.20;99.90
14682;DHT22;7429;52.498;13.480;2023-04-25T08:18:30;9.10;99.90
14682;DHT22;7429;52.498;13.480;2023-04-25T08:21:33;9.20;99.90
14682;DHT22;7429;52.498;13.480;2023-04-25T08:24:41;9.40;99.90
14682;DHT22;7429;52.498;13.480;2023-04-25T08:27:46;9.50;99.90
14682;DHT22;7429;52.498;13.480;2023-04-25T08:30:51;9.50;99.90
14682;DHT22;7429;52.498;13.480;2023-04-25T08:33:55;9.40;99.90
14682;DHT22;7429;52.498;13.480;2023-04-25T08:37:10;9.40;99.90
14682;DHT22;7429;52.498;13.480;2023-04-25T08:40:27;9.50;99.90
14682;DHT22;7429;52.498;13.480;2023-04-25T08:43:42;9.70;99.90
14682;DHT22;7429;52.498;13.480;2023-04-25T08:46:47;9.80;99.90
14682;DHT22;7429;52.498;13.480;2023-04-25T08:50:05;9.80;99.90
14682;DHT22;7429;52.498;13.480;2023-04-25T08:53:13;9.90;99.90
14682;DHT22;7429;52.498;13.480;2023-04-25T08:56:21;9.80;99.90
14682;DHT22;7429;52.498;13.480;2023-04-25T08:59:27;9.80;99.90
14682;DHT22;7429;52.498;13.480;2023-04-25T09:02:31;9.90;99.90
14682;DHT22;7429;52.498;13.480;2023-04-25T09:05:37;9.90;99.90
14682;DHT22;7429;52.498;13.480;2023-04-25T09:08:43;9.90;99.90
14682;DHT22;7429;52.498;13.480;2023-04-25T09:11:46;10.10;99.90
14682;DHT22;7429;52.498;13.480;2023-04-25T09:15:03;10.20;99.90
14682;DHT22;7429;52.498;13.480;2023-04-25T09:18:46;10.30;99.90
14682;DHT22;7429;52.498;13.480;2023-04-25T09:21:54;10.30;99.90
14682;DHT22;7429;52.498;13.480;2023-04-25T09:24:57;10.30;99.90
14682;DHT22;7429;52.498;13.480;2023-04-25T09:28:04;10.70;99.90
14682;DHT22;7429;52.498;13.480;2023-04-25T09:31:11;10.80;99.90
14682;DHT22;7429;52.498;13.480;2023-04-25T09:34:19;11.00;99.90
14682;DHT22;7429;52.498;13.480;2023-04-25T09:37:30;11.30;99.90
14682;DHT22;7429;52.498;13.480;2023-04-25T09:40:52;11.50;99.90
14682;DHT22;7429;52.498;13.480;2023-04-25T09:44:08;11.50;99.90
14682;DHT22;7429;52.498;13.480;2023-04-25T09:47:16;11.20;99.90
14682;DHT22;7429;52.498;13.480;2023-04-25T09:50:20;11.30;99.90
14682;DHT22;7429;52.498;13.480;2023-04-25T09:53:34;11.50;99.90
14682;DHT22;7429;52.498;13.480;2023-04-25T09:56:54;11.30;99.90
14682;DHT22;7429;52.498;13.480;2023-04-25T09:59:57;11.20;99.90
14682;DHT22;7429;52.498;13.480;2023-04-25T10:03:17;11.00;99.90
14682;DHT22;7429;52.498;13.480;2023-04-25T10:06:33;10.90;99.90
14682;DHT22;7429;52.498;13.480;2023-04-25T10:09:38;11.00;99.90
14682;DHT22;7429;52.498;13.480;2023-04-25T10:12:42;10.90;99.90
14682;DHT22;7429;52.498;13.480;2023-04-25T10:15:47;11.00;99.90
14682;DHT22;7429;52.498;13.480;2023-04-25T10:18:51;11.10;99.90
14682;DHT22;7429;52.498;13.480;2023-04-25T10:22:02;11.40;99.90
14682;DHT22;7429;52.498;13.480;2023-04-25T10:25:08;11.40;99.90
14682;DHT22;7429;52.498;13.480;2023-04-25T10:28:11;11.20;99.90
14682;DHT22;7429;52.498;13.480;2023-04-25T10:31:16;11.10;99.90
14682;DHT22;7429;52.498;13.480;2023-04-25T10:34:24;11.00;99.90
14682;DHT22;7429;52.498;13.480;2023-04-25T10:37:29;11.10;99.90
14682;DHT22;7429;52.498;13.480;2023-04-25T10:40:33;11.20;99.90
14682;DHT22;7429;52.498;13.480;2023-04-25T10:43:37;11.20;99.90
14682;DHT22;7429;52.498;13.480;2023-04-25T10:46:41;11.10;99.90
14682;DHT22;7429;52.498;13.480;2023-04-25T10:49:50;11.20;99.90
14682;DHT22;7429;52.498;13.480;2023-04-25T10:52:54;11.20;99.90
14682;DHT22;7429;52.498;13.480;2023-04-25T10:55:57;11.10;99.90
14682;DHT22;7429;52.498;13.480;2023-04-25T10:59:08;11.10;99.90
14682;DHT22;7429;52.498;13.480;2023-04-25T11:02:12;11.10;99.90
14682;DHT22;7429;52.498;13.480;2023-04-25T11:05:23;11.00;99.90
14682;DHT22;7429;52.498;13.480;2023-04-25T11:08:47;11.00;99.90
14682;DHT22;7429;52.498;13.480;2023-04-25T11:11:54;11.10;99.90
14682;DHT22;7429;52.498;13.480;2023-04-25T11:14:59;11.30;99.90
14682;DHT22;7429;52.498;13.480;2023-04-25T11:18:03;11.30;99.90
14682;DHT22;7429;52.498;13.480;2023-04-25T11:21:08;11.20;99.90
14682;DHT22;7429;52.498;13.480;2023-04-25T11:24:11;11.10;99.90
14682;DHT22;7429;52.498;13.480;2023-04-25T11:27:15;11.00;99.90
14682;DHT22;7429;52.498;13.480;2023-04-25T11:30:19;10.90;99.90
14682;DHT22;7429;52.498;13.480;2023-04-25T11:33:23;10.70;99.90
14682;DHT22;7429;52.498;13.480;2023-04-25T11:36:32;10.40;99.90
14682;DHT22;7429;52.498;13.480;2023-04-25T11:39:35;10.20;99.90
14682;DHT22;7429;52.498;13.480;2023-04-25T11:42:39;10.10;99.90
14682;DHT22;7429;52.498;13.480;2023-04-25T11:45:46;10.10;99.90
14682;DHT22;7429;52.498;13.480;2023-04-25T11:48:51;10.10;99.90
14682;DHT22;7429;52.498;13.480;2023-04-25T11:51:57;10.10;99.90
14682;DHT22;7429;52.498;13.480;2023-04-25T11:55:00;10.20;99.90
14682;DHT22;7429;52.498;13.480;2023-04-25T11:58:04;10.20;99.90
14682;DHT22;7429;52.498;13.480;2023-04-25T12:01:07;10.30;99.90
14682;DHT22;7429;52.498;13.480;2023-04-25T12:04:14;10.30;99.90
14682;DHT22;7429;52.498;13.480;2023-04-25T12:07:28;10.50;99.90
14682;DHT22;7429;52.498;13.480;2023-04-25T12:10:31;10.60;99.90
14682;DHT22;7429;52.498;13.480;2023-04-25T12:13:35;10.60;99.90
14682;DHT22;7429;52.498;13.480;2023-04-25T12:16:42;10.70;99.90
14682;DHT22;7429;52.498;13.480;2023-04-25T12:19:46;10.70;99.90
14682;DHT22;7429;52.498;13.480;2023-04-25T12:22:51;10.80;99.90
14682;DHT22;7429;52.498;13.480;2023-04-25T12:25:55;10.80;99.90
14682;DHT22;7429;52.498;13.480;2023-04-25T12:28:59;10.80;99.90
14682;DHT22;7429;52.498;13.480;2023-04-25T12:32:03;10.80;99.90
14682;DHT22;7429;52.498;13.480;2023-04-25T12:35:08;10.80;99.90
14682;DHT22;7429;52.498;13.480;2023-04-25T12:38:20;10.80;99.90
14682;DHT22;7429;52.498;13.480;2023-04-25T12:41:24;10.80;99.90
14682;DHT22;7429;52.498;13.480;2023-04-25T12:44:27;11.00;99.90
14682;DHT22;7429;52.498;13.480;2023-04-25T12:47:30;11.20;99.90
14682;DHT22;7429;52.498;13.480;2023-04-25T12:50:36;11.50;99.90
14682;DHT22;7429;52.498;13.480;2023-04-25T12:53:41;11.70;99.90
14682;DHT22;7429;52.498;13.480;2023-04-25T12:56:44;11.60;99.90
14682;DHT22;7429;52.498;13.480;2023-04-25T12:59:47;11.20;99.90
14682;DHT22;7429;52.498;13.480;2023-04-25T13:02:53;11.10;99.90
14682;DHT22;7429;52.498;13.480;2023-04-25T13:05:57;11.00;99.90
14682;DHT22;7429;52.498;13.480;2023-04-25T13:09:02;11.00;99.90
14682;DHT22;7429;52.498;13.480;2023-04-25T13:12:06;11.00;99.90
14682;DHT22;7429;52.498;13.480;2023-04-25T13:15:10;10.90;99.90
14682;DHT22;7429;52.498;13.480;2023-04-25T13:18:14;11.00;99.90
14682;DHT22;7429;52.498;13.480;2023-04-25T13:21:19;11.20;99.90
14682;DHT22;7429;52.498;13.480;2023-04-25T13:24:23;11.50;99.90
14682;DHT22;7429;52.498;13.480;2023-04-25T13:27:26;11.80;99.90
14682;DHT22;7429;52.498;13.480;2023-04-25T13:30:30;12.20;99.90
14682;DHT22;7429;52.498;13.480;2023-04-25T13:33:33;12.50;99.90
14682;DHT22;7429;52.498;13.480;2023-04-25T13:36:36;12.90;99.90
14682;DHT22;7429;52.498;13.480;2023-04-25T13:39:41;12.90;99.90
14682;DHT22;7429;52.498;13.480;2023-04-25T13:42:44;12.70;99.90
14682;DHT22;7429;52.498;13.480;2023-04-25T13:45:47;12.40;99.90
14682;DHT22;7429;52.498;13.480;2023-04-25T13:48:50;12.10;99.90
14682;DHT22;7429;52.498;13.480;2023-04-25T13:52:00;11.90;99.90
14682;DHT22;7429;52.498;13.480;2023-04-25T13:55:07;11.60;99.90
14682;DHT22;7429;52.498;13.480;2023-04-25T13:58:11;11.60;99.90
14682;DHT22;7429;52.498;13.480;2023-04-25T14:01:14;11.60;99.90
14682;DHT22;7429;52.498;13.480;2023-04-25T14:04:18;11.70;99.90
14682;DHT22;7429;52.498;13.480;2023-04-25T14:07:21;12.00;99.90
14682;DHT22;7429;52.498;13.480;2023-04-25T14:10:25;11.80;99.90
14682;DHT22;7429;52.498;13.480;2023-04-25T14:13:29;11.70;99.90
14682;DHT22;7429;52.498;13.480;2023-04-25T14:16:33;11.50;99.90
14682;DHT22;7429;52.498;13.480;2023-04-25T14:19:36;11.30;99.90
14682;DHT22;7429;52.498;13.480;2023-04-25T14:22:45;11.10;99.90
14682;DHT22;7429;52.498;13.480;2023-04-25T14:25:49;10.80;99.90
14682;DHT22;7429;52.498;13.480;2023-04-25T14:28:54;10.70;99.90
14682;DHT22;7429;52.498;13.480;2023-04-25T14:31:57;10.70;99.90
14682;DHT22;7429;52.498;13.480;2023-04-25T14:35:00;10.60;99.90
14682;DHT22;7429;52.498;13.480;2023-04-25T14:38:03;10.50;99.90
14682;DHT22;7429;52.498;13.480;2023-04-25T14:41:08;10.50;99.90
14682;DHT22;7429;52.498;13.480;2023-04-25T14:44:12;10.50;99.90
14682;DHT22;7429;52.498;13.480;2023-04-25T14:47:15;10.50;99.90
14682;DHT22;7429;52.498;13.480;2023-04-25T14:50:18;10.60;99.90
14682;DHT22;7429;52.498;13.480;2023-04-25T14:53:21;10.90;99.90
14682;DHT22;7429;52.498;13.480;2023-04-25T14:56:26;11.30;99.90
14682;DHT22;7429;52.498;13.480;2023-04-25T14:59:29;11.50;99.90
14682;DHT22;7429;52.498;13.480;2023-04-25T15:02:32;11.40;99.90
14682;DHT22;7429;52.498;13.480;2023-04-25T15:05:37;11.30;99.90
14682;DHT22;7429;52.498;13.480;2023-04-25T15:08:40;10.90;99.90
14682;DHT22;7429;52.498;13.480;2023-04-25T15:11:44;10.70;99.90
14682;DHT22;7429;52.498;13.480;2023-04-25T15:14:47;10.50;99.90
14682;DHT22;7429;52.498;13.480;2023-04-25T15:17:50;10.40;99.90
14682;DHT22;7429;52.498;13.480;2023-04-25T15:20:53;10.30;99.90
14682;DHT22;7429;52.498;13.480;2023-04-25T15:23:57;10.30;99.90
14682;DHT22;7429;52.498;13.480;2023-04-25T15:27:02;10.20;99.90
14682;DHT22;7429;52.498;13.480;2023-04-25T15:30:07;10.10;99.90
14682;DHT22;7429;52.498;13.480;2023-04-25T15:33:13;10.10;99.90
14682;DHT22;7429;52.498;13.480;2023-04-25T15:36:16;10.20;99.90
14682;DHT22;7429;52.498;13.480;2023-04-25T15:39:20;10.50;99.90
14682;DHT22;7429;52.498;13.480;2023-04-25T15:42:25;10.80;99.90
14682;DHT22;7429;52.498;13.480;2023-04-25T15:45:29;11.00;99.90
14682;DHT22;7429;52.498;13.480;2023-04-25T15:48:33;11.00;99.90
14682;DHT22;7429;52.498;13.480;2023-04-25T15:51:37;10.90;99.90
14682;DHT22;7429;52.498;13.480;2023-04-25T15:54:40;11.10;99.90
14682;DHT22;7429;52.498;13.480;2023-04-25T15:57:48;11.00;99.90
14682;DHT22;7429;52.498;13.480;2023-04-25T16:00:52;10.80;99.90
14682;DHT22;7429;52.498;13.480;2023-04-25T16:03:59;10.70;99.90
14682;DHT22;7429;52.498;13.480;2023-04-25T16:07:03;10.60;99.90
14682;DHT22;7429;52.498;13.480;2023-04-25T16:10:08;10.60;99.90
14682;DHT22;7429;52.498;13.480;2023-04-25T16:13:14;10.50;99.90
14682;DHT22;7429;52.498;13.480;2023-04-25T16:16:17;10.50;99.90
14682;DHT22;7429;52.498;13.480;2023-04-25T16:19:21;10.50;99.90
14682;DHT22;7429;52.498;13.480;2023-04-25T16:22:24;10.40;99.90
14682;DHT22;7429;52.498;13.480;2023-04-25T16:25:29;10.40;99.90
14682;DHT22;7429;52.498;13.480;2023-04-25T16:28:33;10.40;99.90
14682;DHT22;7429;52.498;13.480;2023-04-25T16:31:41;10.40;99.90
14682;DHT22;7429;52.498;13.480;2023-04-25T16:34:44;10.20;99.90
14682;DHT22;7429;52.498;13.480;2023-04-25T16:37:47;10.10;99.90
14682;DHT22;7429;52.498;13.480;2023-04-25T16:40:53;10.00;99.90
14682;DHT22;7429;52.498;13.480;2023-04-25T16:43:58;9.90;99.90
14682;DHT22;7429;52.498;13.480;2023-04-25T16:47:02;9.90;99.90
14682;DHT22;7429;52.498;13.480;2023-04-25T16:50:07;9.90;99.90
14682;DHT22;7429;52.498;13.480;2023-04-25T16:53:11;9.90;99.90
14682;DHT22;7429;52.498;13.480;2023-04-25T16:56:14;9.90;99.90
14682;DHT22;7429;52.498;13.480;2023-04-25T16:59:19;9.80;99.90
14682;DHT22;7429;52.498;13.480;2023-04-25T17:02:22;9.70;99.90
14682;DHT22;7429;52.498;13.480;2023-04-25T17:05:28;9.80;99.90
14682;DHT22;7429;52.498;13.480;2023-04-25T17:08:34;9.80;99.90
14682;DHT22;7429;52.498;13.480;2023-04-25T17:11:38;9.80;99.90
14682;DHT22;7429;52.498;13.480;2023-04-25T17:14:43;9.80;99.90
14682;DHT22;7429;52.498;13.480;2023-04-25T17:17:47;9.80;99.90
14682;DHT22;7429;52.498;13.480;2023-04-25T17:20:54;9.70;99.90
14682;DHT22;7429;52.498;13.480;2023-04-25T17:23:57;9.60;99.90
14682;DHT22;7429;52.498;13.480;2023-04-25T17:27:01;9.50;99.90
14682;DHT22;7429;52.498;13.480;2023-04-25T17:30:08;9.50;99.90
14682;DHT22;7429;52.498;13.480;2023-04-25T17:33:14;9.50;99.90
14682;DHT22;7429;52.498;13.480;2023-04-25T17:36:20;9.50;99.90
14682;DHT22;7429;52.498;13.480;2023-04-25T17:39:23;9.50;99.90
14682;DHT22;7429;52.498;13.480;2023-04-25T17:42:27;9.40;99.90
14682;DHT22;7429;52.498;13.480;2023-04-25T17:45:31;9.40;99.90
14682;DHT22;7429;52.498;13.480;2023-04-25T17:54:02;9.30;99.90
14682;DHT22;7429;52.498;13.480;2023-04-25T17:57:05;9.20;99.90
14682;DHT22;7429;52.498;13.480;2023-04-25T18:00:10;9.20;99.90
14682;DHT22;7429;52.498;13.480;2023-04-25T18:03:33;9.10;99.90
14682;DHT22;7429;52.498;13.480;2023-04-25T18:11:20;9.10;99.90
14682;DHT22;7429;52.498;13.480;2023-04-25T18:14:23;9.00;99.90
14682;DHT22;7429;52.498;13.480;2023-04-25T18:17:26;9.00;99.90
14682;DHT22;7429;52.498;13.480;2023-04-25T18:20:31;9.00;99.90
14682;DHT22;7429;52.498;13.480;2023-04-25T18:23:34;9.00;99.90
14682;DHT22;7429;52.498;13.480;2023-04-25T18:26:46;8.90;99.90
14682;DHT22;7429;52.498;13.480;2023-04-25T18:29:50;9.00;99.90
14682;DHT22;7429;52.498;13.480;2023-04-25T18:32:54;9.00;99.90
14682;DHT22;7429;52.498;13.480;2023-04-25T18:36:01;9.00;99.90
14682;DHT22;7429;52.498;13.480;2023-04-25T18:39:05;9.00;99.90
14682;DHT22;7429;52.498;13.480;2023-04-25T18:42:22;8.90;99.90
14682;DHT22;7429;52.498;13.480;2023-04-25T18:45:26;8.80;99.90
14682;DHT22;7429;52.498;13.480;2023-04-25T18:48:29;8.70;99.90
14682;DHT22;7429;52.498;13.480;2023-04-25T18:51:34;8.70;99.90
14682;DHT22;7429;52.498;13.480;2023-04-25T18:54:38;8.60;99.90
14682;DHT22;7429;52.498;13.480;2023-04-25T18:57:41;8.60;99.90
14682;DHT22;7429;52.498;13.480;2023-04-25T19:00:47;8.60;99.90
14682;DHT22;7429;52.498;13.480;2023-04-25T19:03:51;8.50;99.90
14682;DHT22;7429;52.498;13.480;2023-04-25T19:06:58;8.50;99.90
14682;DHT22;7429;52.498;13.480;2023-04-25T19:10:02;8.50;99.90
14682;DHT22;7429;52.498;13.480;2023-04-25T19:13:05;8.50;99.90
14682;DHT22;7429;52.498;13.480;2023-04-25T19:16:09;8.60;99.90
14682;DHT22;7429;52.498;13.480;2023-04-25T19:19:13;8.60;99.90
14682;DHT22;7429;52.498;13.480;2023-04-25T19:22:23;8.60;99.90
14682;DHT22;7429;52.498;13.480;2023-04-25T19:25:27;8.60;99.90
14682;DHT22;7429;52.498;13.480;2023-04-25T19:28:35;8.60;99.90
14682;DHT22;7429;52.498;13.480;2023-04-25T19:31:42;8.50;99.90
14682;DHT22;7429;52.498;13.480;2023-04-25T19:34:49;8.50;99.90
14682;DHT22;7429;52.498;13.480;2023-04-25T19:37:54;8.50;99.90
14682;DHT22;7429;52.498;13.480;2023-04-25T19:41:00;8.40;99.90
14682;DHT22;7429;52.498;13.480;2023-04-25T19:44:05;8.40;99.90
14682;DHT22;7429;52.498;13.480;2023-04-25T19:47:11;8.40;99.90
14682;DHT22;7429;52.498;13.480;2023-04-25T19:50:18;8.30;99.90
14682;DHT22;7429;52.498;13.480;2023-04-25T19:53:23;8.20;99.90
14682;DHT22;7429;52.498;13.480;2023-04-25T19:56:29;8.20;99.90
14682;DHT22;7429;52.498;13.480;2023-04-25T19:59:35;8.20;99.90